sensor_id;sensor_type;location;lat;lon;timestamp;P1;durP1;ratioP1;P2;durP2;ratioP2
5491;SDS011;2768;53.540;10.224;2023-05-14T00:05:45;4.90;;;4.40;;
5491;SDS011;2768;53.540;10.224;2023-05-14T00:11:40;5.40;;;4.67;;
5491;SDS011;2768;53.540;10.224;2023-05-14T00:17:34;4.10;;;3.80;;
5491;SDS011;2768;53.540;10.224;2023-05-14T00:23:28;5.47;;;4.27;;
5491;SDS011;2768;53.540;10.224;2023-05-14T00:29:22;5.03;;;4.60;;
5491;SDS011;2768;53.540;10.224;2023-05-14T00:35:16;4.13;;;3.70;;
5491;SDS011;2768;53.540;10.224;2023-05-14T00:41:10;5.03;;;4.63;;
5491;SDS011;2768;53.540;10.224;2023-05-14T00:47:06;5.03;;;4.60;;
5491;SDS011;2768;53.540;10.224;2023-05-14T00:53:00;4.63;;;4.23;;
5491;SDS011;2768;53.540;10.224;2023-05-14T00:58:53;6.53;;;4.67;;
5491;SDS011;2768;53.540;10.224;2023-05-14T01:04:48;5.03;;;4.60;;
5491;SDS011;2768;53.540;10.224;2023-05-14T01:10:44;5.67;;;4.60;;
5491;SDS011;2768;53.540;10.224;2023-05-14T01:16:43;4.77;;;4.40;;
5491;SDS011;2768;53.540;10.224;2023-05-14T01:22:39;7.30;;;4.20;;
5491;SDS011;2768;53.540;10.224;2023-05-14T01:28:32;6.10;;;4.37;;
5491;SDS011;2768;53.540;10.224;2023-05-14T01:34:29;5.27;;;4.77;;
5491;SDS011;2768;53.540;10.224;2023-05-14T01:40:24;5.33;;;4.40;;
5491;SDS011;2768;53.540;10.224;2023-05-14T01:46:19;5.03;;;4.60;;
5491;SDS011;2768;53.540;10.224;2023-05-14T01:52:14;5.30;;;4.80;;
5491;SDS011;2768;53.540;10.224;2023-05-14T01:58:13;5.00;;;4.60;;
5491;SDS011;2768;53.540;10.224;2023-05-14T02:04:07;8.03;;;4.87;;
5491;SDS011;2768;53.540;10.224;2023-05-14T02:10:00;6.03;;;4.33;;
5491;SDS011;2768;53.540;10.224;2023-05-14T02:15:55;5.90;;;5.40;;
5491;SDS011;2768;53.540;10.224;2023-05-14T02:21:49;5.17;;;4.77;;
5491;SDS011;2768;53.540;10.224;2023-05-14T02:27:43;5.27;;;4.77;;
5491;SDS011;2768;53.540;10.224;2023-05-14T02:33:38;5.67;;;5.17;;
5491;SDS011;2768;53.540;10.224;2023-05-14T02:39:32;7.00;;;4.73;;
5491;SDS011;2768;53.540;10.224;2023-05-14T02:45:25;6.13;;;4.90;;
5491;SDS011;2768;53.540;10.224;2023-05-14T02:51:20;5.47;;;5.07;;
5491;SDS011;2768;53.540;10.224;2023-05-14T02:57:13;5.67;;;5.00;;
5491;SDS011;2768;53.540;10.224;2023-05-14T03:03:07;5.13;;;4.73;;
5491;SDS011;2768;53.540;10.224;2023-05-14T03:09:02;5.50;;;5.03;;
5491;SDS011;2768;53.540;10.224;2023-05-14T03:14:56;5.70;;;5.13;;
5491;SDS011;2768;53.540;10.224;2023-05-14T03:20:49;8.43;;;5.10;;
5491;SDS011;2768;53.540;10.224;2023-05-14T03:26:44;6.33;;;5.70;;
5491;SDS011;2768;53.540;10.224;2023-05-14T03:32:37;6.00;;;5.40;;
5491;SDS011;2768;53.540;10.224;2023-05-14T03:38:31;5.60;;;5.03;;
5491;SDS011;2768;53.540;10.224;2023-05-14T03:44:26;5.43;;;5.03;;
5491;SDS011;2768;53.540;10.224;2023-05-14T03:50:19;6.77;;;5.17;;
5491;SDS011;2768;53.540;10.224;2023-05-14T03:56:16;5.50;;;5.00;;
5491;SDS011;2768;53.540;10.224;2023-05-14T04:02:11;5.47;;;4.97;;
5491;SDS011;2768;53.540;10.224;2023-05-14T04:08:04;5.33;;;4.93;;
5491;SDS011;2768;53.540;10.224;2023-05-14T04:13:57;6.13;;;5.53;;
5491;SDS011;2768;53.540;10.224;2023-05-14T04:19:52;5.13;;;4.57;;
5491;SDS011;2768;53.540;10.224;2023-05-14T04:25:45;5.70;;;5.20;;
5491;SDS011;2768;53.540;10.224;2023-05-14T04:31:38;6.13;;;5.63;;
5491;SDS011;2768;53.540;10.224;2023-05-14T04:37:34;5.87;;;5.23;;
5491;SDS011;2768;53.540;10.224;2023-05-14T04:43:27;5.90;;;5.20;;
5491;SDS011;2768;53.540;10.224;2023-05-14T04:49:20;6.17;;;5.53;;
5491;SDS011;2768;53.540;10.224;2023-05-14T04:55:14;5.93;;;5.33;;
5491;SDS011;2768;53.540;10.224;2023-05-14T05:01:07;5.43;;;5.03;;
5491;SDS011;2768;53.540;10.224;2023-05-14T05:07:01;8.50;;;6.10;;
5491;SDS011;2768;53.540;10.224;2023-05-14T05:12:55;5.50;;;5.00;;
5491;SDS011;2768;53.540;10.224;2023-05-14T05:18:48;8.23;;;5.50;;
5491;SDS011;2768;53.540;10.224;2023-05-14T05:24:41;6.00;;;5.50;;
5491;SDS011;2768;53.540;10.224;2023-05-14T05:30:36;5.90;;;5.47;;
5491;SDS011;2768;53.540;10.224;2023-05-14T05:36:29;5.90;;;5.30;;
5491;SDS011;2768;53.540;10.224;2023-05-14T05:42:23;7.37;;;5.60;;
5491;SDS011;2768;53.540;10.224;2023-05-14T05:48:17;6.50;;;5.63;;
5491;SDS011;2768;53.540;10.224;2023-05-14T05:54:11;5.67;;;5.13;;
5491;SDS011;2768;53.540;10.224;2023-05-14T06:00:04;6.37;;;5.50;;
5491;SDS011;2768;53.540;10.224;2023-05-14T06:06:05;5.70;;;5.07;;
5491;SDS011;2768;53.540;10.224;2023-05-14T06:11:58;6.73;;;6.10;;
5491;SDS011;2768;53.540;10.224;2023-05-14T06:17:51;5.57;;;5.07;;
5491;SDS011;2768;53.540;10.224;2023-05-14T06:23:45;5.27;;;4.77;;
5491;SDS011;2768;53.540;10.224;2023-05-14T06:29:39;5.03;;;4.63;;
5491;SDS011;2768;53.540;10.224;2023-05-14T06:35:32;4.57;;;4.20;;
5491;SDS011;2768;53.540;10.224;2023-05-14T06:41:27;8.30;;;5.00;;
5491;SDS011;2768;53.540;10.224;2023-05-14T06:47:20;8.03;;;4.67;;
5491;SDS011;2768;53.540;10.224;2023-05-14T06:53:13;4.00;;;3.67;;
5491;SDS011;2768;53.540;10.224;2023-05-14T06:59:08;5.40;;;5.00;;
5491;SDS011;2768;53.540;10.224;2023-05-14T07:05:01;4.20;;;3.90;;
5491;SDS011;2768;53.540;10.224;2023-05-14T07:10:55;8.37;;;3.80;;
5491;SDS011;2768;53.540;10.224;2023-05-14T07:16:49;6.10;;;4.40;;
5491;SDS011;2768;53.540;10.224;2023-05-14T07:22:43;5.37;;;4.90;;
5491;SDS011;2768;53.540;10.224;2023-05-14T07:28:36;6.93;;;3.73;;
5491;SDS011;2768;53.540;10.224;2023-05-14T07:34:30;4.50;;;4.10;;
5491;SDS011;2768;53.540;10.224;2023-05-14T07:40:23;4.07;;;3.77;;
5491;SDS011;2768;53.540;10.224;2023-05-14T07:46:17;4.40;;;4.00;;
5491;SDS011;2768;53.540;10.224;2023-05-14T07:52:12;6.17;;;5.10;;
5491;SDS011;2768;53.540;10.224;2023-05-14T07:58:05;5.17;;;3.50;;
5491;SDS011;2768;53.540;10.224;2023-05-14T08:03:58;5.00;;;3.70;;
5491;SDS011;2768;53.540;10.224;2023-05-14T08:09:52;3.73;;;3.40;;
5491;SDS011;2768;53.540;10.224;2023-05-14T08:15:46;3.97;;;3.53;;
5491;SDS011;2768;53.540;10.224;2023-05-14T08:21:39;4.13;;;3.27;;
5491;SDS011;2768;53.540;10.224;2023-05-14T08:27:33;3.83;;;3.53;;
5491;SDS011;2768;53.540;10.224;2023-05-14T08:33:26;3.67;;;3.30;;
5491;SDS011;2768;53.540;10.224;2023-05-14T08:39:19;3.67;;;3.37;;
5491;SDS011;2768;53.540;10.224;2023-05-14T08:45:15;3.50;;;3.10;;
5491;SDS011;2768;53.540;10.224;2023-05-14T08:51:10;3.43;;;3.13;;
5491;SDS011;2768;53.540;10.224;2023-05-14T08:57:04;3.60;;;3.27;;
5491;SDS011;2768;53.540;10.224;2023-05-14T09:03:02;3.23;;;2.80;;
5491;SDS011;2768;53.540;10.224;2023-05-14T09:08:57;3.47;;;2.80;;
5491;SDS011;2768;53.540;10.224;2023-05-14T09:14:50;5.27;;;2.70;;
5491;SDS011;2768;53.540;10.224;2023-05-14T09:20:44;3.50;;;3.20;;
5491;SDS011;2768;53.540;10.224;2023-05-14T09:26:38;4.13;;;3.17;;
5491;SDS011;2768;53.540;10.224;2023-05-14T09:32:35;3.47;;;2.87;;
5491;SDS011;2768;53.540;10.224;2023-05-14T09:38:31;2.93;;;2.70;;
5491;SDS011;2768;53.540;10.224;2023-05-14T09:44:24;5.10;;;2.60;;
5491;SDS011;2768;53.540;10.224;2023-05-14T09:50:18;6.70;;;2.40;;
5491;SDS011;2768;53.540;10.224;2023-05-14T09:56:13;3.63;;;2.30;;
5491;SDS011;2768;53.540;10.224;2023-05-14T10:02:06;2.83;;;2.60;;
5491;SDS011;2768;53.540;10.224;2023-05-14T10:08:08;3.00;;;2.70;;
5491;SDS011;2768;53.540;10.224;2023-05-14T10:14:07;4.70;;;2.93;;
5491;SDS011;2768;53.540;10.224;2023-05-14T10:20:08;7.83;;;2.93;;
5491;SDS011;2768;53.540;10.224;2023-05-14T10:26:06;4.13;;;3.13;;
5491;SDS011;2768;53.540;10.224;2023-05-14T10:32:04;6.40;;;2.90;;
5491;SDS011;2768;53.540;10.224;2023-05-14T10:37:59;4.87;;;2.83;;
5491;SDS011;2768;53.540;10.224;2023-05-14T10:43:52;4.10;;;2.97;;
5491;SDS011;2768;53.540;10.224;2023-05-14T10:49:52;4.20;;;2.80;;
5491;SDS011;2768;53.540;10.224;2023-05-14T10:55:46;4.90;;;2.70;;
5491;SDS011;2768;53.540;10.224;2023-05-14T11:01:40;3.47;;;2.57;;
5491;SDS011;2768;53.540;10.224;2023-05-14T11:07:36;3.90;;;3.20;;
5491;SDS011;2768;53.540;10.224;2023-05-14T11:13:30;4.10;;;3.00;;
5491;SDS011;2768;53.540;10.224;2023-05-14T11:19:24;3.47;;;2.80;;
5491;SDS011;2768;53.540;10.224;2023-05-14T11:25:19;3.67;;;2.87;;
5491;SDS011;2768;53.540;10.224;2023-05-14T11:31:13;3.60;;;3.23;;
5491;SDS011;2768;53.540;10.224;2023-05-14T11:37:06;3.60;;;3.10;;
5491;SDS011;2768;53.540;10.224;2023-05-14T11:43:01;3.57;;;3.27;;
5491;SDS011;2768;53.540;10.224;2023-05-14T11:48:55;3.47;;;3.20;;
5491;SDS011;2768;53.540;10.224;2023-05-14T11:54:48;4.07;;;3.60;;
5491;SDS011;2768;53.540;10.224;2023-05-14T12:00:44;4.73;;;2.90;;
5491;SDS011;2768;53.540;10.224;2023-05-14T12:06:38;3.73;;;3.33;;
5491;SDS011;2768;53.540;10.224;2023-05-14T12:12:33;6.50;;;3.20;;
5491;SDS011;2768;53.540;10.224;2023-05-14T12:18:29;4.30;;;3.37;;
5491;SDS011;2768;53.540;10.224;2023-05-14T12:24:24;3.33;;;3.10;;
5491;SDS011;2768;53.540;10.224;2023-05-14T12:30:17;3.37;;;3.07;;
5491;SDS011;2768;53.540;10.224;2023-05-14T12:36:13;3.47;;;3.03;;
5491;SDS011;2768;53.540;10.224;2023-05-14T12:42:13;3.67;;;3.17;;
5491;SDS011;2768;53.540;10.224;2023-05-14T12:48:06;6.47;;;3.07;;
5491;SDS011;2768;53.540;10.224;2023-05-14T12:54:01;4.73;;;2.67;;
5491;SDS011;2768;53.540;10.224;2023-05-14T12:59:54;3.37;;;2.63;;
5491;SDS011;2768;53.540;10.224;2023-05-14T13:05:49;3.40;;;3.10;;
5491;SDS011;2768;53.540;10.224;2023-05-14T13:11:43;4.90;;;2.97;;
5491;SDS011;2768;53.540;10.224;2023-05-14T13:17:36;6.00;;;3.53;;
5491;SDS011;2768;53.540;10.224;2023-05-14T13:23:31;3.70;;;3.00;;
5491;SDS011;2768;53.540;10.224;2023-05-14T13:29:26;4.63;;;2.90;;
5491;SDS011;2768;53.540;10.224;2023-05-14T13:35:22;5.27;;;3.33;;
5491;SDS011;2768;53.540;10.224;2023-05-14T13:41:15;6.80;;;2.80;;
5491;SDS011;2768;53.540;10.224;2023-05-14T13:47:10;3.80;;;3.07;;
5491;SDS011;2768;53.540;10.224;2023-05-14T13:53:03;3.30;;;2.53;;
5491;SDS011;2768;53.540;10.224;2023-05-14T13:58:56;5.80;;;4.53;;
5491;SDS011;2768;53.540;10.224;2023-05-14T14:04:51;4.40;;;2.60;;
5491;SDS011;2768;53.540;10.224;2023-05-14T14:10:44;4.70;;;2.80;;
5491;SDS011;2768;53.540;10.224;2023-05-14T14:16:37;3.23;;;2.70;;
5491;SDS011;2768;53.540;10.224;2023-05-14T14:22:32;4.27;;;2.70;;
5491;SDS011;2768;53.540;10.224;2023-05-14T14:28:26;4.20;;;3.30;;
5491;SDS011;2768;53.540;10.224;2023-05-14T14:34:19;2.90;;;2.70;;
5491;SDS011;2768;53.540;10.224;2023-05-14T14:40:13;3.70;;;2.97;;
5491;SDS011;2768;53.540;10.224;2023-05-14T14:46:07;4.87;;;2.90;;
5491;SDS011;2768;53.540;10.224;2023-05-14T14:52:00;3.20;;;2.70;;
5491;SDS011;2768;53.540;10.224;2023-05-14T14:57:55;2.47;;;2.27;;
5491;SDS011;2768;53.540;10.224;2023-05-14T15:03:48;3.20;;;2.60;;
5491;SDS011;2768;53.540;10.224;2023-05-14T15:09:41;3.60;;;2.70;;
5491;SDS011;2768;53.540;10.224;2023-05-14T15:15:36;3.23;;;2.93;;
5491;SDS011;2768;53.540;10.224;2023-05-14T15:21:29;4.63;;;3.07;;
5491;SDS011;2768;53.540;10.224;2023-05-14T15:27:22;8.07;;;3.17;;
5491;SDS011;2768;53.540;10.224;2023-05-14T15:33:17;3.50;;;2.57;;
5491;SDS011;2768;53.540;10.224;2023-05-14T15:39:11;6.50;;;3.37;;
5491;SDS011;2768;53.540;10.224;2023-05-14T15:45:04;3.80;;;3.10;;
5491;SDS011;2768;53.540;10.224;2023-05-14T15:50:59;5.00;;;2.60;;
5491;SDS011;2768;53.540;10.224;2023-05-14T15:56:54;3.73;;;2.87;;
5491;SDS011;2768;53.540;10.224;2023-05-14T16:02:47;3.13;;;2.70;;
5491;SDS011;2768;53.540;10.224;2023-05-14T16:08:42;3.30;;;3.00;;
5491;SDS011;2768;53.540;10.224;2023-05-14T16:14:35;3.27;;;2.97;;
5491;SDS011;2768;53.540;10.224;2023-05-14T16:20:32;3.97;;;2.80;;
5491;SDS011;2768;53.540;10.224;2023-05-14T16:26:26;6.13;;;3.20;;
5491;SDS011;2768;53.540;10.224;2023-05-14T16:32:19;3.20;;;2.90;;
5491;SDS011;2768;53.540;10.224;2023-05-14T16:38:13;4.87;;;3.40;;
5491;SDS011;2768;53.540;10.224;2023-05-14T16:44:07;3.67;;;3.27;;
5491;SDS011;2768;53.540;10.224;2023-05-14T16:50:00;4.30;;;3.50;;
5491;SDS011;2768;53.540;10.224;2023-05-14T16:55:54;3.20;;;3.00;;
5491;SDS011;2768;53.540;10.224;2023-05-14T17:01:48;4.77;;;3.60;;
5491;SDS011;2768;53.540;10.224;2023-05-14T17:07:41;4.30;;;3.10;;
5491;SDS011;2768;53.540;10.224;2023-05-14T17:13:34;4.83;;;3.17;;
5491;SDS011;2768;53.540;10.224;2023-05-14T17:19:29;9.60;;;3.67;;
5491;SDS011;2768;53.540;10.224;2023-05-14T17:25:22;3.90;;;2.70;;
5491;SDS011;2768;53.540;10.224;2023-05-14T17:31:17;5.00;;;3.47;;
5491;SDS011;2768;53.540;10.224;2023-05-14T17:37:11;4.13;;;3.30;;
5491;SDS011;2768;53.540;10.224;2023-05-14T17:43:04;3.50;;;3.20;;
5491;SDS011;2768;53.540;10.224;2023-05-14T17:48:59;5.13;;;3.57;;
5491;SDS011;2768;53.540;10.224;2023-05-14T17:54:53;7.17;;;3.73;;
5491;SDS011;2768;53.540;10.224;2023-05-14T18:00:46;4.43;;;3.33;;
5491;SDS011;2768;53.540;10.224;2023-05-14T18:06:40;7.37;;;3.67;;
5491;SDS011;2768;53.540;10.224;2023-05-14T18:12:34;6.40;;;3.63;;
5491;SDS011;2768;53.540;10.224;2023-05-14T18:18:27;4.60;;;2.93;;
5491;SDS011;2768;53.540;10.224;2023-05-14T18:24:21;5.13;;;2.73;;
5491;SDS011;2768;53.540;10.224;2023-05-14T18:30:15;3.50;;;3.20;;
5491;SDS011;2768;53.540;10.224;2023-05-14T18:36:08;5.60;;;3.53;;
5491;SDS011;2768;53.540;10.224;2023-05-14T18:42:02;5.03;;;3.67;;
5491;SDS011;2768;53.540;10.224;2023-05-14T18:47:56;4.93;;;3.50;;
5491;SDS011;2768;53.540;10.224;2023-05-14T18:53:49;3.93;;;3.40;;
5491;SDS011;2768;53.540;10.224;2023-05-14T18:59:43;4.27;;;3.13;;
5491;SDS011;2768;53.540;10.224;2023-05-14T19:05:37;3.60;;;3.30;;
5491;SDS011;2768;53.540;10.224;2023-05-14T19:11:30;3.87;;;3.57;;
5491;SDS011;2768;53.540;10.224;2023-05-14T19:17:23;4.33;;;3.93;;
5491;SDS011;2768;53.540;10.224;2023-05-14T19:23:18;6.87;;;4.50;;
5491;SDS011;2768;53.540;10.224;2023-05-14T19:29:11;7.67;;;4.13;;
5491;SDS011;2768;53.540;10.224;2023-05-14T19:35:04;3.90;;;3.40;;
5491;SDS011;2768;53.540;10.224;2023-05-14T19:40:59;4.93;;;3.70;;
5491;SDS011;2768;53.540;10.224;2023-05-14T19:46:52;8.00;;;3.90;;
5491;SDS011;2768;53.540;10.224;2023-05-14T19:52:46;5.33;;;4.07;;
5491;SDS011;2768;53.540;10.224;2023-05-14T19:58:40;5.90;;;5.23;;
5491;SDS011;2768;53.540;10.224;2023-05-14T20:04:33;6.40;;;4.47;;
5491;SDS011;2768;53.540;10.224;2023-05-14T20:10:30;6.07;;;3.60;;
5491;SDS011;2768;53.540;10.224;2023-05-14T20:16:25;5.30;;;3.43;;
5491;SDS011;2768;53.540;10.224;2023-05-14T20:22:19;5.10;;;3.87;;
5491;SDS011;2768;53.540;10.224;2023-05-14T20:28:12;7.63;;;3.80;;
5491;SDS011;2768;53.540;10.224;2023-05-14T20:34:07;4.47;;;3.60;;
5491;SDS011;2768;53.540;10.224;2023-05-14T20:40:00;4.80;;;4.00;;
5491;SDS011;2768;53.540;10.224;2023-05-14T20:45:55;5.23;;;3.90;;
5491;SDS011;2768;53.540;10.224;2023-05-14T20:51:51;4.47;;;3.83;;
5491;SDS011;2768;53.540;10.224;2023-05-14T20:57:44;4.10;;;3.50;;
5491;SDS011;2768;53.540;10.224;2023-05-14T21:03:37;4.10;;;3.70;;
5491;SDS011;2768;53.540;10.224;2023-05-14T21:09:32;6.57;;;4.27;;
5491;SDS011;2768;53.540;10.224;2023-05-14T21:15:25;4.53;;;4.03;;
5491;SDS011;2768;53.540;10.224;2023-05-14T21:21:20;4.27;;;3.67;;
5491;SDS011;2768;53.540;10.224;2023-05-14T21:27:14;5.33;;;4.03;;
5491;SDS011;2768;53.540;10.224;2023-05-14T21:33:08;5.37;;;4.40;;
5491;SDS011;2768;53.540;10.224;2023-05-14T21:39:01;6.37;;;4.50;;
5491;SDS011;2768;53.540;10.224;2023-05-14T21:44:56;7.83;;;4.30;;
5491;SDS011;2768;53.540;10.224;2023-05-14T21:50:48;5.30;;;3.80;;
5491;SDS011;2768;53.540;10.224;2023-05-14T21:56:42;5.10;;;4.43;;
5491;SDS011;2768;53.540;10.224;2023-05-14T22:02:36;5.97;;;4.27;;
5491;SDS011;2768;53.540;10.224;2023-05-14T22:08:33;5.27;;;4.27;;
5491;SDS011;2768;53.540;10.224;2023-05-14T22:14:26;4.93;;;4.53;;
5491;SDS011;2768;53.540;10.224;2023-05-14T22:20:21;4.50;;;4.10;;
5491;SDS011;2768;53.540;10.224;2023-05-14T22:26:14;5.77;;;4.20;;
5491;SDS011;2768;53.540;10.224;2023-05-14T22:32:07;6.60;;;4.53;;
5491;SDS011;2768;53.540;10.224;2023-05-14T22:38:02;7.37;;;4.50;;
5491;SDS011;2768;53.540;10.224;2023-05-14T22:43:55;5.07;;;4.47;;
5491;SDS011;2768;53.540;10.224;2023-05-14T22:49:48;7.20;;;4.60;;
5491;SDS011;2768;53.540;10.224;2023-05-14T22:55:42;7.37;;;4.30;;
5491;SDS011;2768;53.540;10.224;2023-05-14T23:01:36;5.50;;;4.77;;
5491;SDS011;2768;53.540;10.224;2023-05-14T23:07:29;4.97;;;4.17;;
5491;SDS011;2768;53.540;10.224;2023-05-14T23:13:24;5.70;;;4.47;;
5491;SDS011;2768;53.540;10.224;2023-05-14T23:19:17;4.87;;;4.47;;
5491;SDS011;2768;53.540;10.224;2023-05-14T23:25:10;10.30;;;5.60;;
5491;SDS011;2768;53.540;10.224;2023-05-14T23:31:05;6.83;;;5.53;;
5491;SDS011;2768;53.540;10.224;2023-05-14T23:36:58;6.30;;;5.70;;
5491;SDS011;2768;53.540;10.224;2023-05-14T23:42:51;7.53;;;5.97;;
5491;SDS011;2768;53.540;10.224;2023-05-14T23:48:45;6.50;;;5.50;;
5491;SDS011;2768;53.540;10.224;2023-05-14T23:54:39;5.77;;;5.27;;
